• Join FlightAware (Why Join?)
  • Login
  • US Flag 
04:43PM EDT


 

Airport Tracker/Info


-or-


 

Live Flight TrackerFlight Track Log ✈ CHQ5022 ✈ 22-Jul-2013 ✈ KORD - KSDF

Flight Track Log - Related Links

Times and Time Zones

All times are in EDT time to prevent confusion due to time zone crossing. See the CHQ5022 flight status page for this flight to view local times or setup timezone preferences in your user account.

Time Position Orientation Groundspeed Altitude Reporting Facility
EDT Latitude Longitude Course Direction KTS MPH feet Rate Location/Type
12:26PM 41.9333 -87.9000 180° South 168 193 2,000  Level Chicago TRACON
12:27PM 41.8833 -87.8833 166° South 196 226 4,100 1,860 Climbing Chicago TRACON
12:28PM 41.6507 -87.7071 166° South  Level Estimated
12:28PM 41.8231 -87.8450 155° Southeast 233 268 6,100  Level Chicago Center
12:29PM 41.5403 -87.6410 167° South  Level Estimated
12:29PM 41.7425 -87.8147 164° South 250 288 9,100  Level Chicago Center
12:30PM 41.4299 -87.5752 180° South  Level Estimated
12:30PM 41.6683 -87.7939 168° South 267 307 10,800  Level Chicago Center
12:31PM 41.3194 -87.5095 180° South  Level Estimated
12:31PM 41.5831 -87.7711 169° South 304 350 12,200  Level Chicago Center
12:32PM 41.4889 -87.7442 168° South 338 389 13,300 960 Climbing Chicago Center
12:33PM 41.3864 -87.7239 172° South 361 415 14,300 960 Climbing Chicago Center
12:34PM 41.2781 -87.7269 181° South 382 440 15,300 960 Climbing Chicago Center
12:35PM 41.1669 -87.7250 179° South 392 451 16,300 1,020 Climbing Chicago Center
12:36PM 41.0328 -87.7039 173° South 400 460 17,500 1,020 Climbing Chicago Center
12:37PM 40.9183 -87.6864 173° South 410 472 18,500 960 Climbing Chicago Center
12:38PM 40.8047 -87.6706 174° South 412 474 19,500 960 Climbing Chicago Center
12:39PM 40.6883 -87.6558 175° South 417 480 20,500 960 Climbing Chicago Center
12:40PM 40.5711 -87.6397 174° South 423 487 21,500 1,020 Climbing Chicago Center
12:41PM 40.4292 -87.6211 174° South 427 491 22,700 720 Climbing Chicago Center
12:43PM 40.3139 -87.5697 161° South 437 503 23,000 120 Climbing Chicago Center
12:44PM 40.1919 -87.5222 163° South 455 524 23,000  Level Chicago Center
12:44PM 40.1119 -87.4922 164° South 461 531 23,000  Level Indianapolis Center
12:45PM 39.9892 -87.4439 163° South 464 534 23,000  Level Indianapolis Center
12:46PM 39.8656 -87.3967 164° South 464 534 23,000  Level Indianapolis Center
12:47PM 39.7444 -87.3483 163° South 460 529 23,000  Level Indianapolis Center
12:48PM 39.6208 -87.3008 164° South 464 534 23,000  Level Indianapolis Center
12:49PM 39.4992 -87.2536 163° South 462 532 23,000  Level Indianapolis Center
12:50PM 39.3725 -87.1453 147° Southeast 469 540 23,000 -540 Level Indianapolis Center
12:51PM 39.2822 -87.0256 134° Southeast 469 540 22,000 -1,560 Descending Indianapolis Center
12:52PM 39.1933 -86.9106 135° Southeast 459 528 19,900 -2,100 Descending Indianapolis Center
12:54PM 39.1060 -86.8082 140° Southeast  Level Estimated
12:54PM 39.0144 -86.6836 140° Southeast 426 490 15,600  Level Indianapolis Center
12:55PM 38.9322 -86.5781 135° Southeast 418 481 13,800 -1,620 Descending Indianapolis Center
12:56PM 38.8536 -86.4792 136° Southeast 403 464 12,300 -1,320 Descending Indianapolis Center
12:57PM 38.7761 -86.3814 135° Southeast 393 452 11,200 -1,080 Descending Indianapolis Center
12:58PM 38.7147 -86.2922 131° Southeast 349 402 10,100 -1,320 Descending Indianapolis Center
01:00PM 38.6594 -86.2119 131° Southeast 316 364 8,500 -1,440 Descending Indianapolis Center
01:01PM 38.6064 -86.1342 131° Southeast 303 349 7,200 -780 Descending Indianapolis Center
01:02PM 38.5561 -86.0592 131° Southeast 285 328 6,900 -900 Descending Indianapolis Center
01:03PM 38.5125 -85.9792 125° Southeast 276 318 5,400 -1,620 Descending Indianapolis Center
01:04PM 38.4636 -85.8844 123° Southeast 268 308 3,600 -1,200 Descending Indianapolis Center
01:05PM 38.4122 -85.8233 137° Southeast 259 298 3,000 -600 Descending Indianapolis Center